sensor_id;sensor_type;location;lat;lon;timestamp;temperature;humidity
19025;DHT22;9645;51.448;6.260;2022-08-16T00:02:06;20.60;99.90
19025;DHT22;9645;51.448;6.260;2022-08-16T00:04:35;20.60;99.90
19025;DHT22;9645;51.448;6.260;2022-08-16T00:07:03;20.60;99.90
19025;DHT22;9645;51.448;6.260;2022-08-16T00:09:31;20.70;99.90
19025;DHT22;9645;51.448;6.260;2022-08-16T00:11:58;20.70;99.90
19025;DHT22;9645;51.448;6.260;2022-08-16T00:14:27;20.80;99.90
19025;DHT22;9645;51.448;6.260;2022-08-16T00:16:56;20.80;99.90
19025;DHT22;9645;51.448;6.260;2022-08-16T00:19:27;20.80;99.90
19025;DHT22;9645;51.448;6.260;2022-08-16T00:21:56;20.80;99.90
19025;DHT22;9645;51.448;6.260;2022-08-16T00:24:24;20.90;99.90
19025;DHT22;9645;51.448;6.260;2022-08-16T00:26:52;20.90;99.90
19025;DHT22;9645;51.448;6.260;2022-08-16T00:29:19;20.90;99.90
19025;DHT22;9645;51.448;6.260;2022-08-16T00:31:49;20.90;99.90
19025;DHT22;9645;51.448;6.260;2022-08-16T00:34:17;20.90;99.90
19025;DHT22;9645;51.448;6.260;2022-08-16T00:36:44;20.90;99.90
19025;DHT22;9645;51.448;6.260;2022-08-16T00:39:14;20.90;99.90
19025;DHT22;9645;51.448;6.260;2022-08-16T00:41:42;20.90;99.90
19025;DHT22;9645;51.448;6.260;2022-08-16T00:44:10;20.90;99.90
19025;DHT22;9645;51.448;6.260;2022-08-16T00:46:41;20.80;99.90
19025;DHT22;9645;51.448;6.260;2022-08-16T00:49:12;20.90;99.90
19025;DHT22;9645;51.448;6.260;2022-08-16T00:51:40;20.90;99.90
19025;DHT22;9645;51.448;6.260;2022-08-16T00:54:07;20.80;99.90
19025;DHT22;9645;51.448;6.260;2022-08-16T00:56:38;20.80;99.90
19025;DHT22;9645;51.448;6.260;2022-08-16T00:59:07;20.80;99.90
19025;DHT22;9645;51.448;6.260;2022-08-16T01:01:35;20.80;99.90
19025;DHT22;9645;51.448;6.260;2022-08-16T01:04:03;20.80;99.90
19025;DHT22;9645;51.448;6.260;2022-08-16T01:06:32;20.80;99.90
19025;DHT22;9645;51.448;6.260;2022-08-16T01:09:00;20.80;99.90
19025;DHT22;9645;51.448;6.260;2022-08-16T01:11:32;20.80;99.90
19025;DHT22;9645;51.448;6.260;2022-08-16T01:14:07;20.80;99.90
19025;DHT22;9645;51.448;6.260;2022-08-16T01:16:36;20.70;99.90
19025;DHT22;9645;51.448;6.260;2022-08-16T01:19:19;20.70;99.90
19025;DHT22;9645;51.448;6.260;2022-08-16T01:21:52;20.60;99.90
19025;DHT22;9645;51.448;6.260;2022-08-16T01:24:24;20.60;99.90
19025;DHT22;9645;51.448;6.260;2022-08-16T01:26:56;20.50;99.90
19025;DHT22;9645;51.448;6.260;2022-08-16T01:29:27;20.40;99.90
19025;DHT22;9645;51.448;6.260;2022-08-16T01:31:55;20.40;99.90
19025;DHT22;9645;51.448;6.260;2022-08-16T01:34:22;20.30;99.90
19025;DHT22;9645;51.448;6.260;2022-08-16T01:36:57;20.20;99.90
19025;DHT22;9645;51.448;6.260;2022-08-16T01:39:25;20.20;99.90
19025;DHT22;9645;51.448;6.260;2022-08-16T01:41:52;20.10;99.90
19025;DHT22;9645;51.448;6.260;2022-08-16T01:44:20;20.10;99.90
19025;DHT22;9645;51.448;6.260;2022-08-16T01:46:48;20.00;99.90
19025;DHT22;9645;51.448;6.260;2022-08-16T01:49:21;20.00;99.90
19025;DHT22;9645;51.448;6.260;2022-08-16T01:51:52;20.00;99.90
19025;DHT22;9645;51.448;6.260;2022-08-16T01:54:21;19.90;99.90
19025;DHT22;9645;51.448;6.260;2022-08-16T01:56:50;19.90;99.90
19025;DHT22;9645;51.448;6.260;2022-08-16T01:59:17;19.90;99.90
19025;DHT22;9645;51.448;6.260;2022-08-16T02:01:45;19.80;99.90
19025;DHT22;9645;51.448;6.260;2022-08-16T02:04:13;19.80;99.90
19025;DHT22;9645;51.448;6.260;2022-08-16T02:06:41;19.80;99.90
19025;DHT22;9645;51.448;6.260;2022-08-16T02:09:09;19.70;99.90
19025;DHT22;9645;51.448;6.260;2022-08-16T02:11:37;19.60;99.90
19025;DHT22;9645;51.448;6.260;2022-08-16T02:14:05;19.50;99.90
19025;DHT22;9645;51.448;6.260;2022-08-16T02:16:32;19.50;99.90
19025;DHT22;9645;51.448;6.260;2022-08-16T02:19:01;19.40;99.90
19025;DHT22;9645;51.448;6.260;2022-08-16T02:21:28;19.40;99.90
19025;DHT22;9645;51.448;6.260;2022-08-16T02:23:56;19.30;99.90
19025;DHT22;9645;51.448;6.260;2022-08-16T02:26:23;19.30;99.90
19025;DHT22;9645;51.448;6.260;2022-08-16T02:28:51;19.30;99.90
19025;DHT22;9645;51.448;6.260;2022-08-16T02:31:20;19.20;99.90
19025;DHT22;9645;51.448;6.260;2022-08-16T02:33:47;19.20;99.90
19025;DHT22;9645;51.448;6.260;2022-08-16T02:36:15;19.10;99.90
19025;DHT22;9645;51.448;6.260;2022-08-16T02:38:42;19.10;99.90
19025;DHT22;9645;51.448;6.260;2022-08-16T02:41:09;19.00;99.90
19025;DHT22;9645;51.448;6.260;2022-08-16T02:43:37;19.00;99.90
19025;DHT22;9645;51.448;6.260;2022-08-16T02:46:05;18.90;99.90
19025;DHT22;9645;51.448;6.260;2022-08-16T02:48:34;18.90;99.90
19025;DHT22;9645;51.448;6.260;2022-08-16T02:51:05;18.90;99.90
19025;DHT22;9645;51.448;6.260;2022-08-16T02:53:33;18.80;99.90
19025;DHT22;9645;51.448;6.260;2022-08-16T02:56:01;18.80;99.90
19025;DHT22;9645;51.448;6.260;2022-08-16T02:58:28;18.70;99.90
19025;DHT22;9645;51.448;6.260;2022-08-16T03:00:58;18.80;99.90
19025;DHT22;9645;51.448;6.260;2022-08-16T03:03:26;18.70;99.90
19025;DHT22;9645;51.448;6.260;2022-08-16T03:05:56;18.70;99.90
19025;DHT22;9645;51.448;6.260;2022-08-16T03:08:23;18.70;99.90
19025;DHT22;9645;51.448;6.260;2022-08-16T03:10:51;18.70;99.90
19025;DHT22;9645;51.448;6.260;2022-08-16T03:13:18;18.70;99.90
19025;DHT22;9645;51.448;6.260;2022-08-16T03:15:46;18.60;99.90
19025;DHT22;9645;51.448;6.260;2022-08-16T03:18:13;18.60;99.90
19025;DHT22;9645;51.448;6.260;2022-08-16T03:20:40;18.60;99.90
19025;DHT22;9645;51.448;6.260;2022-08-16T03:23:09;18.50;99.90
19025;DHT22;9645;51.448;6.260;2022-08-16T03:25:37;18.50;99.90
19025;DHT22;9645;51.448;6.260;2022-08-16T03:28:07;19.20;99.90
19025;DHT22;9645;51.448;6.260;2022-08-16T03:30:35;18.40;99.90
19025;DHT22;9645;51.448;6.260;2022-08-16T03:33:02;18.40;99.90
19025;DHT22;9645;51.448;6.260;2022-08-16T03:35:32;18.40;99.90
19025;DHT22;9645;51.448;6.260;2022-08-16T03:38:02;18.40;99.90
19025;DHT22;9645;51.448;6.260;2022-08-16T03:40:32;18.30;99.90
19025;DHT22;9645;51.448;6.260;2022-08-16T03:42:59;18.30;99.90
19025;DHT22;9645;51.448;6.260;2022-08-16T03:45:27;18.30;99.90
19025;DHT22;9645;51.448;6.260;2022-08-16T03:47:54;18.30;99.90
19025;DHT22;9645;51.448;6.260;2022-08-16T03:50:21;18.30;99.90
19025;DHT22;9645;51.448;6.260;2022-08-16T03:52:48;18.30;99.90
19025;DHT22;9645;51.448;6.260;2022-08-16T03:55:15;18.30;99.90
19025;DHT22;9645;51.448;6.260;2022-08-16T03:57:44;18.30;99.90
19025;DHT22;9645;51.448;6.260;2022-08-16T04:00:15;18.30;99.90
19025;DHT22;9645;51.448;6.260;2022-08-16T04:05:12;18.20;99.90
19025;DHT22;9645;51.448;6.260;2022-08-16T04:07:39;18.30;99.90
19025;DHT22;9645;51.448;6.260;2022-08-16T04:10:09;18.30;99.90
19025;DHT22;9645;51.448;6.260;2022-08-16T04:12:38;18.30;99.90
19025;DHT22;9645;51.448;6.260;2022-08-16T04:15:11;18.30;99.90
19025;DHT22;9645;51.448;6.260;2022-08-16T04:17:39;18.30;99.90
19025;DHT22;9645;51.448;6.260;2022-08-16T04:20:08;18.30;99.90
19025;DHT22;9645;51.448;6.260;2022-08-16T04:22:36;18.20;99.90
19025;DHT22;9645;51.448;6.260;2022-08-16T04:25:04;18.20;99.90
19025;DHT22;9645;51.448;6.260;2022-08-16T04:27:31;18.20;99.90
19025;DHT22;9645;51.448;6.260;2022-08-16T04:29:59;18.20;99.90
19025;DHT22;9645;51.448;6.260;2022-08-16T04:32:28;18.20;99.90
19025;DHT22;9645;51.448;6.260;2022-08-16T04:34:55;18.10;99.90
19025;DHT22;9645;51.448;6.260;2022-08-16T04:37:22;18.10;99.90
19025;DHT22;9645;51.448;6.260;2022-08-16T04:39:49;18.10;99.90
19025;DHT22;9645;51.448;6.260;2022-08-16T04:42:17;18.10;99.90
19025;DHT22;9645;51.448;6.260;2022-08-16T04:44:44;18.10;99.90
19025;DHT22;9645;51.448;6.260;2022-08-16T04:47:12;18.10;99.90
19025;DHT22;9645;51.448;6.260;2022-08-16T04:49:40;18.10;99.90
19025;DHT22;9645;51.448;6.260;2022-08-16T04:52:08;18.00;99.90
19025;DHT22;9645;51.448;6.260;2022-08-16T04:54:37;18.00;99.90
19025;DHT22;9645;51.448;6.260;2022-08-16T04:57:05;18.10;99.90
19025;DHT22;9645;51.448;6.260;2022-08-16T04:59:34;18.00;99.90
19025;DHT22;9645;51.448;6.260;2022-08-16T05:02:01;18.00;99.90
19025;DHT22;9645;51.448;6.260;2022-08-16T05:04:28;18.10;99.90
19025;DHT22;9645;51.448;6.260;2022-08-16T05:06:57;18.20;99.90
19025;DHT22;9645;51.448;6.260;2022-08-16T05:09:24;18.20;99.90
19025;DHT22;9645;51.448;6.260;2022-08-16T05:11:51;18.30;99.90
19025;DHT22;9645;51.448;6.260;2022-08-16T05:14:18;18.40;99.90
19025;DHT22;9645;51.448;6.260;2022-08-16T05:16:45;18.40;99.90
19025;DHT22;9645;51.448;6.260;2022-08-16T05:19:12;18.50;99.90
19025;DHT22;9645;51.448;6.260;2022-08-16T05:21:39;18.60;99.90
19025;DHT22;9645;51.448;6.260;2022-08-16T05:24:08;18.00;99.90
19025;DHT22;9645;51.448;6.260;2022-08-16T05:26:35;18.80;99.90
19025;DHT22;9645;51.448;6.260;2022-08-16T05:29:03;18.80;99.90
19025;DHT22;9645;51.448;6.260;2022-08-16T05:31:31;18.90;99.90
19025;DHT22;9645;51.448;6.260;2022-08-16T05:33:59;19.00;99.90
19025;DHT22;9645;51.448;6.260;2022-08-16T05:36:27;19.00;99.90
19025;DHT22;9645;51.448;6.260;2022-08-16T05:38:54;19.10;99.90
19025;DHT22;9645;51.448;6.260;2022-08-16T05:41:23;19.20;99.90
19025;DHT22;9645;51.448;6.260;2022-08-16T05:43:50;19.30;99.90
19025;DHT22;9645;51.448;6.260;2022-08-16T05:46:17;19.20;99.90
19025;DHT22;9645;51.448;6.260;2022-08-16T05:48:44;19.50;99.90
19025;DHT22;9645;51.448;6.260;2022-08-16T05:51:11;19.60;99.90
19025;DHT22;9645;51.448;6.260;2022-08-16T05:53:39;19.70;99.90
19025;DHT22;9645;51.448;6.260;2022-08-16T05:56:06;19.70;99.90
19025;DHT22;9645;51.448;6.260;2022-08-16T05:58:34;19.80;99.90
19025;DHT22;9645;51.448;6.260;2022-08-16T06:01:01;19.90;99.90
19025;DHT22;9645;51.448;6.260;2022-08-16T06:03:29;20.00;99.90
19025;DHT22;9645;51.448;6.260;2022-08-16T06:05:56;20.20;99.90
19025;DHT22;9645;51.448;6.260;2022-08-16T06:08:23;20.30;99.90
19025;DHT22;9645;51.448;6.260;2022-08-16T06:10:51;20.50;99.90
19025;DHT22;9645;51.448;6.260;2022-08-16T06:13:18;20.70;99.90
19025;DHT22;9645;51.448;6.260;2022-08-16T06:15:46;20.80;99.90
19025;DHT22;9645;51.448;6.260;2022-08-16T06:18:16;20.90;99.90
19025;DHT22;9645;51.448;6.260;2022-08-16T06:20:44;21.00;99.90
19025;DHT22;9645;51.448;6.260;2022-08-16T06:23:11;21.10;99.90
19025;DHT22;9645;51.448;6.260;2022-08-16T06:25:38;21.20;99.90
19025;DHT22;9645;51.448;6.260;2022-08-16T06:28:07;21.30;99.90
19025;DHT22;9645;51.448;6.260;2022-08-16T06:30:34;21.40;99.90
19025;DHT22;9645;51.448;6.260;2022-08-16T06:33:03;21.50;99.90
19025;DHT22;9645;51.448;6.260;2022-08-16T06:35:30;21.70;99.90
19025;DHT22;9645;51.448;6.260;2022-08-16T06:37:57;21.80;99.90
19025;DHT22;9645;51.448;6.260;2022-08-16T06:40:24;21.80;99.90
19025;DHT22;9645;51.448;6.260;2022-08-16T06:42:51;21.90;99.90
19025;DHT22;9645;51.448;6.260;2022-08-16T06:45:18;22.00;99.90
19025;DHT22;9645;51.448;6.260;2022-08-16T06:47:46;22.10;99.90
19025;DHT22;9645;51.448;6.260;2022-08-16T06:50:14;22.20;99.90
19025;DHT22;9645;51.448;6.260;2022-08-16T06:52:42;22.40;99.90
19025;DHT22;9645;51.448;6.260;2022-08-16T06:55:10;22.60;99.90
19025;DHT22;9645;51.448;6.260;2022-08-16T06:57:39;22.70;99.90
19025;DHT22;9645;51.448;6.260;2022-08-16T07:00:10;22.90;99.90
19025;DHT22;9645;51.448;6.260;2022-08-16T07:02:38;23.10;99.90
19025;DHT22;9645;51.448;6.260;2022-08-16T07:05:06;23.30;99.90
19025;DHT22;9645;51.448;6.260;2022-08-16T07:07:36;23.50;99.90
19025;DHT22;9645;51.448;6.260;2022-08-16T07:10:05;23.70;99.90
19025;DHT22;9645;51.448;6.260;2022-08-16T07:12:33;23.80;99.90
19025;DHT22;9645;51.448;6.260;2022-08-16T07:15:01;24.00;99.90
19025;DHT22;9645;51.448;6.260;2022-08-16T07:17:29;24.20;99.90
19025;DHT22;9645;51.448;6.260;2022-08-16T07:19:57;24.30;99.90
19025;DHT22;9645;51.448;6.260;2022-08-16T07:22:25;24.60;99.90
19025;DHT22;9645;51.448;6.260;2022-08-16T07:24:54;24.80;99.90
19025;DHT22;9645;51.448;6.260;2022-08-16T07:27:21;25.10;99.90
19025;DHT22;9645;51.448;6.260;2022-08-16T07:29:48;25.20;99.90
19025;DHT22;9645;51.448;6.260;2022-08-16T07:32:16;25.30;99.90
19025;DHT22;9645;51.448;6.260;2022-08-16T07:34:45;25.50;99.90
19025;DHT22;9645;51.448;6.260;2022-08-16T07:37:12;25.60;99.90
19025;DHT22;9645;51.448;6.260;2022-08-16T07:39:39;26.00;99.90
19025;DHT22;9645;51.448;6.260;2022-08-16T07:42:08;26.50;99.90
19025;DHT22;9645;51.448;6.260;2022-08-16T07:44:35;26.70;99.90
19025;DHT22;9645;51.448;6.260;2022-08-16T07:47:02;26.90;99.90
19025;DHT22;9645;51.448;6.260;2022-08-16T07:49:30;27.10;99.90
19025;DHT22;9645;51.448;6.260;2022-08-16T07:51:57;27.60;99.90
19025;DHT22;9645;51.448;6.260;2022-08-16T07:54:24;27.90;99.90
19025;DHT22;9645;51.448;6.260;2022-08-16T07:56:51;28.10;99.90
19025;DHT22;9645;51.448;6.260;2022-08-16T07:59:19;28.00;99.90
19025;DHT22;9645;51.448;6.260;2022-08-16T08:01:48;27.90;99.90
19025;DHT22;9645;51.448;6.260;2022-08-16T08:04:16;27.80;99.90
19025;DHT22;9645;51.448;6.260;2022-08-16T08:06:44;27.60;99.90
19025;DHT22;9645;51.448;6.260;2022-08-16T08:09:11;27.60;99.90
19025;DHT22;9645;51.448;6.260;2022-08-16T08:11:38;27.60;99.90
19025;DHT22;9645;51.448;6.260;2022-08-16T08:14:06;27.90;99.90
19025;DHT22;9645;51.448;6.260;2022-08-16T08:16:34;28.10;99.90
19025;DHT22;9645;51.448;6.260;2022-08-16T08:19:01;28.40;99.90
19025;DHT22;9645;51.448;6.260;2022-08-16T08:21:29;28.90;99.90
19025;DHT22;9645;51.448;6.260;2022-08-16T08:23:56;29.10;99.90
19025;DHT22;9645;51.448;6.260;2022-08-16T08:26:24;29.40;99.90
19025;DHT22;9645;51.448;6.260;2022-08-16T08:28:51;29.90;99.90
19025;DHT22;9645;51.448;6.260;2022-08-16T08:31:18;30.10;99.90
19025;DHT22;9645;51.448;6.260;2022-08-16T08:33:47;30.40;99.90
19025;DHT22;9645;51.448;6.260;2022-08-16T08:36:21;30.50;99.90
19025;DHT22;9645;51.448;6.260;2022-08-16T08:38:49;30.50;99.90
19025;DHT22;9645;51.448;6.260;2022-08-16T08:41:17;30.60;99.90
19025;DHT22;9645;51.448;6.260;2022-08-16T08:43:44;30.90;99.90
19025;DHT22;9645;51.448;6.260;2022-08-16T08:46:11;30.90;99.90
19025;DHT22;9645;51.448;6.260;2022-08-16T08:48:38;31.00;99.90
19025;DHT22;9645;51.448;6.260;2022-08-16T08:51:08;31.00;99.90
19025;DHT22;9645;51.448;6.260;2022-08-16T08:53:36;31.10;99.90
19025;DHT22;9645;51.448;6.260;2022-08-16T08:56:05;31.50;99.90
19025;DHT22;9645;51.448;6.260;2022-08-16T08:58:32;32.00;99.90
19025;DHT22;9645;51.448;6.260;2022-08-16T09:01:01;32.10;99.90
19025;DHT22;9645;51.448;6.260;2022-08-16T09:03:29;32.30;99.50
19025;DHT22;9645;51.448;6.260;2022-08-16T09:05:57;32.30;99.90
19025;DHT22;9645;51.448;6.260;2022-08-16T09:08:25;32.30;98.70
19025;DHT22;9645;51.448;6.260;2022-08-16T09:10:53;32.40;98.50
19025;DHT22;9645;51.448;6.260;2022-08-16T09:13:20;32.40;98.20
19025;DHT22;9645;51.448;6.260;2022-08-16T09:15:49;32.40;97.70
19025;DHT22;9645;51.448;6.260;2022-08-16T09:18:16;32.30;97.80
19025;DHT22;9645;51.448;6.260;2022-08-16T09:20:43;32.40;96.30
19025;DHT22;9645;51.448;6.260;2022-08-16T09:23:11;32.50;96.80
19025;DHT22;9645;51.448;6.260;2022-08-16T09:25:40;33.00;96.60
19025;DHT22;9645;51.448;6.260;2022-08-16T09:28:08;33.50;95.30
19025;DHT22;9645;51.448;6.260;2022-08-16T09:30:35;33.80;94.90
19025;DHT22;9645;51.448;6.260;2022-08-16T09:33:04;33.90;93.70
19025;DHT22;9645;51.448;6.260;2022-08-16T09:35:31;33.70;94.20
19025;DHT22;9645;51.448;6.260;2022-08-16T09:37:58;33.90;93.80
19025;DHT22;9645;51.448;6.260;2022-08-16T09:40:25;33.60;93.60
19025;DHT22;9645;51.448;6.260;2022-08-16T09:42:54;33.60;93.50
19025;DHT22;9645;51.448;6.260;2022-08-16T09:45:23;33.30;92.10
19025;DHT22;9645;51.448;6.260;2022-08-16T09:47:52;33.10;93.00
19025;DHT22;9645;51.448;6.260;2022-08-16T09:50:20;32.70;93.10
19025;DHT22;9645;51.448;6.260;2022-08-16T09:52:47;32.90;93.90
19025;DHT22;9645;51.448;6.260;2022-08-16T09:55:14;33.20;92.30
19025;DHT22;9645;51.448;6.260;2022-08-16T09:57:41;33.50;92.40
19025;DHT22;9645;51.448;6.260;2022-08-16T10:00:11;33.60;91.90
19025;DHT22;9645;51.448;6.260;2022-08-16T10:02:39;33.90;92.40
19025;DHT22;9645;51.448;6.260;2022-08-16T10:05:08;34.60;91.70
19025;DHT22;9645;51.448;6.260;2022-08-16T10:07:36;34.60;90.00
19025;DHT22;9645;51.448;6.260;2022-08-16T10:10:04;34.10;90.20
19025;DHT22;9645;51.448;6.260;2022-08-16T10:12:31;34.30;90.80
19025;DHT22;9645;51.448;6.260;2022-08-16T10:15:18;34.70;90.60
19025;DHT22;9645;51.448;6.260;2022-08-16T10:17:48;34.90;89.20
19025;DHT22;9645;51.448;6.260;2022-08-16T10:20:16;35.10;86.80
19025;DHT22;9645;51.448;6.260;2022-08-16T10:22:44;35.10;88.50
19025;DHT22;9645;51.448;6.260;2022-08-16T10:25:11;35.00;82.80
19025;DHT22;9645;51.448;6.260;2022-08-16T10:27:38;34.80;83.40
19025;DHT22;9645;51.448;6.260;2022-08-16T10:30:06;34.70;83.70
19025;DHT22;9645;51.448;6.260;2022-08-16T10:32:35;35.00;83.20
19025;DHT22;9645;51.448;6.260;2022-08-16T10:35:03;35.40;80.90
19025;DHT22;9645;51.448;6.260;2022-08-16T10:37:30;35.50;82.20
19025;DHT22;9645;51.448;6.260;2022-08-16T10:39:57;35.70;79.10
19025;DHT22;9645;51.448;6.260;2022-08-16T10:42:27;35.40;78.50
19025;DHT22;9645;51.448;6.260;2022-08-16T10:44:54;34.90;80.10
19025;DHT22;9645;51.448;6.260;2022-08-16T10:47:21;34.90;79.50
19025;DHT22;9645;51.448;6.260;2022-08-16T10:49:49;35.20;81.30
19025;DHT22;9645;51.448;6.260;2022-08-16T10:52:17;35.70;79.20
19025;DHT22;9645;51.448;6.260;2022-08-16T10:54:44;35.90;79.60
19025;DHT22;9645;51.448;6.260;2022-08-16T10:57:11;35.90;77.50
19025;DHT22;9645;51.448;6.260;2022-08-16T10:59:39;36.20;76.40
19025;DHT22;9645;51.448;6.260;2022-08-16T11:02:07;35.80;74.50
19025;DHT22;9645;51.448;6.260;2022-08-16T11:04:35;35.80;75.60
19025;DHT22;9645;51.448;6.260;2022-08-16T11:07:04;35.80;76.80
19025;DHT22;9645;51.448;6.260;2022-08-16T11:09:31;35.90;75.50
19025;DHT22;9645;51.448;6.260;2022-08-16T11:11:58;36.40;76.80
19025;DHT22;9645;51.448;6.260;2022-08-16T11:14:25;36.20;73.90
19025;DHT22;9645;51.448;6.260;2022-08-16T11:16:53;35.30;74.00
19025;DHT22;9645;51.448;6.260;2022-08-16T11:19:21;34.80;74.30
19025;DHT22;9645;51.448;6.260;2022-08-16T11:21:48;34.20;72.50
19025;DHT22;9645;51.448;6.260;2022-08-16T11:24:16;33.60;74.60
19025;DHT22;9645;51.448;6.260;2022-08-16T11:26:44;32.90;77.60
19025;DHT22;9645;51.448;6.260;2022-08-16T11:29:11;32.30;78.30
19025;DHT22;9645;51.448;6.260;2022-08-16T11:31:38;31.90;81.60
19025;DHT22;9645;51.448;6.260;2022-08-16T11:34:05;31.50;81.80
19025;DHT22;9645;51.448;6.260;2022-08-16T11:36:32;31.30;82.80
19025;DHT22;9645;51.448;6.260;2022-08-16T11:38:59;31.40;83.30
19025;DHT22;9645;51.448;6.260;2022-08-16T11:41:27;32.10;80.50
19025;DHT22;9645;51.448;6.260;2022-08-16T11:43:55;32.90;79.60
19025;DHT22;9645;51.448;6.260;2022-08-16T11:46:22;33.20;76.20
19025;DHT22;9645;51.448;6.260;2022-08-16T11:48:49;33.60;76.10
19025;DHT22;9645;51.448;6.260;2022-08-16T11:51:17;33.80;73.50
19025;DHT22;9645;51.448;6.260;2022-08-16T11:53:44;34.10;73.70
19025;DHT22;9645;51.448;6.260;2022-08-16T11:56:11;34.40;73.70
19025;DHT22;9645;51.448;6.260;2022-08-16T11:58:40;34.30;71.80
19025;DHT22;9645;51.448;6.260;2022-08-16T12:01:07;34.70;72.10
19025;DHT22;9645;51.448;6.260;2022-08-16T12:03:34;35.40;71.90
19025;DHT22;9645;51.448;6.260;2022-08-16T12:06:06;35.20;70.30
19025;DHT22;9645;51.448;6.260;2022-08-16T12:08:34;34.60;69.30
19025;DHT22;9645;51.448;6.260;2022-08-16T12:11:02;33.80;71.20
19025;DHT22;9645;51.448;6.260;2022-08-16T12:13:31;33.10;72.60
19025;DHT22;9645;51.448;6.260;2022-08-16T12:15:59;32.50;75.30
19025;DHT22;9645;51.448;6.260;2022-08-16T12:18:27;32.20;76.00
19025;DHT22;9645;51.448;6.260;2022-08-16T12:20:54;32.10;77.10
19025;DHT22;9645;51.448;6.260;2022-08-16T12:23:22;32.10;77.00
19025;DHT22;9645;51.448;6.260;2022-08-16T12:25:49;31.70;76.40
19025;DHT22;9645;51.448;6.260;2022-08-16T12:28:16;31.70;77.80
19025;DHT22;9645;51.448;6.260;2022-08-16T12:30:45;32.10;76.50
19025;DHT22;9645;51.448;6.260;2022-08-16T12:33:16;32.60;73.40
19025;DHT22;9645;51.448;6.260;2022-08-16T12:35:45;33.40;74.30
19025;DHT22;9645;51.448;6.260;2022-08-16T12:38:14;34.50;74.20
19025;DHT22;9645;51.448;6.260;2022-08-16T12:40:46;35.00;71.70
19025;DHT22;9645;51.448;6.260;2022-08-16T12:43:16;34.70;68.00
19025;DHT22;9645;51.448;6.260;2022-08-16T12:45:48;34.20;70.70
19025;DHT22;9645;51.448;6.260;2022-08-16T12:48:22;34.20;72.50
19025;DHT22;9645;51.448;6.260;2022-08-16T12:51:10;33.80;69.20
19025;DHT22;9645;51.448;6.260;2022-08-16T12:53:39;33.20;71.10
19025;DHT22;9645;51.448;6.260;2022-08-16T12:56:08;33.10;73.40
19025;DHT22;9645;51.448;6.260;2022-08-16T12:58:36;33.70;72.50
19025;DHT22;9645;51.448;6.260;2022-08-16T13:01:04;34.20;67.80
19025;DHT22;9645;51.448;6.260;2022-08-16T13:03:33;34.10;67.80
19025;DHT22;9645;51.448;6.260;2022-08-16T13:06:03;34.20;68.00
19025;DHT22;9645;51.448;6.260;2022-08-16T13:08:30;34.60;65.20
19025;DHT22;9645;51.448;6.260;2022-08-16T13:10:57;34.40;64.20
19025;DHT22;9645;51.448;6.260;2022-08-16T13:13:25;34.60;65.60
19025;DHT22;9645;51.448;6.260;2022-08-16T13:15:53;34.70;64.80
19025;DHT22;9645;51.448;6.260;2022-08-16T13:18:20;34.80;64.70
19025;DHT22;9645;51.448;6.260;2022-08-16T13:20:49;35.00;64.20
19025;DHT22;9645;51.448;6.260;2022-08-16T13:23:17;35.10;65.20
19025;DHT22;9645;51.448;6.260;2022-08-16T13:25:46;35.40;65.60
19025;DHT22;9645;51.448;6.260;2022-08-16T13:28:13;34.90;66.90
19025;DHT22;9645;51.448;6.260;2022-08-16T13:30:43;34.80;68.40
19025;DHT22;9645;51.448;6.260;2022-08-16T13:33:13;34.70;67.50
19025;DHT22;9645;51.448;6.260;2022-08-16T13:35:43;34.30;67.00
19025;DHT22;9645;51.448;6.260;2022-08-16T13:38:12;34.10;68.90
19025;DHT22;9645;51.448;6.260;2022-08-16T13:40:40;34.50;68.30
19025;DHT22;9645;51.448;6.260;2022-08-16T13:43:07;34.80;67.10
19025;DHT22;9645;51.448;6.260;2022-08-16T13:45:34;35.10;64.80
19025;DHT22;9645;51.448;6.260;2022-08-16T13:48:01;34.60;64.00
19025;DHT22;9645;51.448;6.260;2022-08-16T13:50:30;34.30;65.30
19025;DHT22;9645;51.448;6.260;2022-08-16T13:52:58;34.30;67.30
19025;DHT22;9645;51.448;6.260;2022-08-16T13:55:26;34.20;66.90
19025;DHT22;9645;51.448;6.260;2022-08-16T13:57:54;34.10;65.20
19025;DHT22;9645;51.448;6.260;2022-08-16T14:00:21;34.30;65.70
19025;DHT22;9645;51.448;6.260;2022-08-16T14:02:48;34.60;65.60
19025;DHT22;9645;51.448;6.260;2022-08-16T14:05:15;34.70;64.00
19025;DHT22;9645;51.448;6.260;2022-08-16T14:07:42;34.80;61.60
19025;DHT22;9645;51.448;6.260;2022-08-16T14:10:11;34.90;64.60
19025;DHT22;9645;51.448;6.260;2022-08-16T14:12:40;35.20;62.50
19025;DHT22;9645;51.448;6.260;2022-08-16T14:15:11;35.30;62.70
19025;DHT22;9645;51.448;6.260;2022-08-16T14:17:39;35.40;61.30
19025;DHT22;9645;51.448;6.260;2022-08-16T14:20:07;35.30;60.50
19025;DHT22;9645;51.448;6.260;2022-08-16T14:22:35;35.20;61.50
19025;DHT22;9645;51.448;6.260;2022-08-16T14:25:05;35.00;61.50
19025;DHT22;9645;51.448;6.260;2022-08-16T14:27:33;34.60;64.40
19025;DHT22;9645;51.448;6.260;2022-08-16T14:30:04;34.30;64.30
19025;DHT22;9645;51.448;6.260;2022-08-16T14:32:32;33.90;63.60
19025;DHT22;9645;51.448;6.260;2022-08-16T14:35:00;33.60;63.40
19025;DHT22;9645;51.448;6.260;2022-08-16T14:37:28;33.40;64.30
19025;DHT22;9645;51.448;6.260;2022-08-16T14:39:55;33.00;64.80
19025;DHT22;9645;51.448;6.260;2022-08-16T14:42:24;32.70;65.30
19025;DHT22;9645;51.448;6.260;2022-08-16T14:44:51;32.50;67.20
19025;DHT22;9645;51.448;6.260;2022-08-16T14:47:20;32.30;66.50
19025;DHT22;9645;51.448;6.260;2022-08-16T14:49:47;32.20;66.50
19025;DHT22;9645;51.448;6.260;2022-08-16T14:52:17;32.20;68.90
19025;DHT22;9645;51.448;6.260;2022-08-16T14:54:45;32.30;67.40
19025;DHT22;9645;51.448;6.260;2022-08-16T14:57:13;32.20;65.80
19025;DHT22;9645;51.448;6.260;2022-08-16T14:59:40;32.30;66.30
19025;DHT22;9645;51.448;6.260;2022-08-16T15:02:13;32.50;66.70
19025;DHT22;9645;51.448;6.260;2022-08-16T15:04:42;32.40;67.70
19025;DHT22;9645;51.448;6.260;2022-08-16T15:07:10;32.50;66.10
19025;DHT22;9645;51.448;6.260;2022-08-16T15:09:38;32.50;66.90
19025;DHT22;9645;51.448;6.260;2022-08-16T15:12:06;32.30;66.90
19025;DHT22;9645;51.448;6.260;2022-08-16T15:14:36;32.20;67.30
19025;DHT22;9645;51.448;6.260;2022-08-16T15:17:03;31.90;66.10
19025;DHT22;9645;51.448;6.260;2022-08-16T15:19:32;31.80;65.80
19025;DHT22;9645;51.448;6.260;2022-08-16T15:22:01;31.80;67.60
19025;DHT22;9645;51.448;6.260;2022-08-16T15:24:28;31.70;67.20
19025;DHT22;9645;51.448;6.260;2022-08-16T15:26:56;31.60;66.50
19025;DHT22;9645;51.448;6.260;2022-08-16T15:29:23;31.40;68.20
19025;DHT22;9645;51.448;6.260;2022-08-16T15:31:51;31.50;67.70
19025;DHT22;9645;51.448;6.260;2022-08-16T15:34:18;31.60;69.00
19025;DHT22;9645;51.448;6.260;2022-08-16T15:36:46;31.60;68.20
19025;DHT22;9645;51.448;6.260;2022-08-16T15:39:14;31.70;69.70
19025;DHT22;9645;51.448;6.260;2022-08-16T15:41:58;31.60;68.90
19025;DHT22;9645;51.448;6.260;2022-08-16T15:44:26;31.70;68.90
19025;DHT22;9645;51.448;6.260;2022-08-16T15:47:02;31.70;68.50
19025;DHT22;9645;51.448;6.260;2022-08-16T15:49:32;31.80;69.00
19025;DHT22;9645;51.448;6.260;2022-08-16T15:52:04;31.60;66.60
19025;DHT22;9645;51.448;6.260;2022-08-16T15:54:32;31.60;67.70